createdAt,value
2023-05-16T00:01:47.408Z,15.57
2023-05-16T00:04:33.246Z,14.45
2023-05-16T00:07:19.183Z,15.61
2023-05-16T00:10:05.554Z,14.99
2023-05-16T00:12:51.609Z,14.64
2023-05-16T00:15:38.577Z,15.63
2023-05-16T00:18:23.852Z,14.43
2023-05-16T00:21:09.373Z,14.48
2023-05-16T00:23:54.760Z,14.48
2023-05-16T00:26:40.133Z,14.71
2023-05-16T00:29:26.332Z,15.58
2023-05-16T00:32:11.995Z,15.18
2023-05-16T00:34:58.683Z,15.46
2023-05-16T00:37:44.125Z,14.52
2023-05-16T00:40:29.565Z,14.24
2023-05-16T00:43:14.865Z,15.35
2023-05-16T00:46:01.122Z,15.02
2023-05-16T00:48:47.399Z,15.20
2023-05-16T00:51:32.888Z,14.98
2023-05-16T00:54:20.570Z,15.26
2023-05-16T00:57:06.878Z,15.00
2023-05-16T00:59:52.613Z,15.38
2023-05-16T01:02:38.512Z,14.07
2023-05-16T01:05:24.076Z,14.22
2023-05-16T01:08:10.286Z,15.40
2023-05-16T01:11:43.216Z,15.29
2023-05-16T01:14:44.680Z,15.34
2023-05-16T01:17:54.494Z,15.34
2023-05-16T01:20:52.143Z,15.30
2023-05-16T01:23:59.248Z,15.15
2023-05-16T01:26:46.769Z,15.30
2023-05-16T01:29:32.470Z,15.05
2023-05-16T01:32:18.222Z,15.16
2023-05-16T01:35:04.552Z,15.02
2023-05-16T01:37:59.753Z,15.00
2023-05-16T01:40:59.690Z,14.21
2023-05-16T01:43:51.377Z,15.04
2023-05-16T01:46:40.758Z,14.90
2023-05-16T01:49:51.232Z,13.95
2023-05-16T01:52:49.295Z,15.07
2023-05-16T01:55:47.916Z,15.09
2023-05-16T01:58:36.828Z,14.07
2023-05-16T02:01:23.074Z,15.06
2023-05-16T02:04:09.386Z,15.09
2023-05-16T02:06:55.571Z,15.13
2023-05-16T02:09:41.348Z,13.75
2023-05-16T02:12:27.079Z,14.04
2023-05-16T02:15:14.841Z,15.06
2023-05-16T02:18:01.132Z,14.72
2023-05-16T02:20:46.360Z,15.01
2023-05-16T02:23:32.008Z,13.88
2023-05-16T02:26:18.737Z,14.91
2023-05-16T02:29:04.063Z,13.71
2023-05-16T02:31:49.472Z,13.57
2023-05-16T02:34:34.715Z,13.60
2023-05-16T02:37:20.772Z,14.69
2023-05-16T02:40:09.298Z,14.74
2023-05-16T02:42:55.117Z,13.84
2023-05-16T02:45:40.928Z,14.77
2023-05-16T02:48:26.891Z,14.25
2023-05-16T02:51:12.356Z,13.84
2023-05-16T02:53:59.608Z,14.80
2023-05-16T02:56:45.123Z,14.55
2023-05-16T02:59:30.475Z,14.75
2023-05-16T03:02:15.870Z,14.67
2023-05-16T03:05:01.144Z,14.48
2023-05-16T03:07:46.719Z,14.68
2023-05-16T03:10:32.067Z,14.72
2023-05-16T03:13:17.490Z,14.75
2023-05-16T03:16:03.419Z,13.77
2023-05-16T03:18:48.816Z,14.82
2023-05-16T03:21:34.229Z,14.85
2023-05-16T03:24:21.777Z,14.88
2023-05-16T03:27:08.084Z,14.79
2023-05-16T03:29:53.634Z,14.92
2023-05-16T03:32:38.992Z,13.68
2023-05-16T03:35:24.745Z,13.73
2023-05-16T03:38:10.296Z,14.98
2023-05-16T03:40:55.885Z,13.83
2023-05-16T03:43:42.715Z,15.05
2023-05-16T03:46:28.358Z,15.04
2023-05-16T03:49:13.603Z,14.82
2023-05-16T03:51:59.004Z,13.83
2023-05-16T03:54:44.553Z,14.52
2023-05-16T03:58:03.821Z,15.02
2023-05-16T04:00:52.146Z,14.86
2023-05-16T04:03:38.533Z,14.92
2023-05-16T04:06:24.023Z,14.98
2023-05-16T04:09:09.650Z,13.84
2023-05-16T04:11:59.136Z,15.07
2023-05-16T04:14:44.717Z,14.30
2023-05-16T04:17:30.163Z,14.91
2023-05-16T04:20:15.612Z,15.19
2023-05-16T04:23:01.072Z,15.21
2023-05-16T04:25:46.665Z,14.27
2023-05-16T04:28:32.609Z,14.71
2023-05-16T04:31:18.255Z,15.31
2023-05-16T04:34:03.846Z,14.26
2023-05-16T04:36:49.458Z,15.43
2023-05-16T04:39:36.529Z,15.00
2023-05-16T04:42:22.242Z,15.75
2023-05-16T04:45:11.392Z,15.73
2023-05-16T04:47:56.851Z,15.06
2023-05-16T04:50:44.371Z,16.20
2023-05-16T04:53:29.980Z,15.21
2023-05-16T04:56:15.723Z,16.54
2023-05-16T04:59:02.430Z,16.39
2023-05-16T05:01:48.091Z,16.93
2023-05-16T05:04:36.860Z,16.97
2023-05-16T05:07:23.595Z,17.14
2023-05-16T05:10:09.618Z,16.31
2023-05-16T05:12:55.057Z,17.17
2023-05-16T05:15:40.656Z,16.18
2023-05-16T05:18:26.841Z,17.30
2023-05-16T05:21:12.662Z,17.29
2023-05-16T05:23:59.065Z,17.28
2023-05-16T05:26:44.881Z,17.30
2023-05-16T05:29:30.916Z,17.36
2023-05-16T05:32:16.638Z,16.39
2023-05-16T05:35:03.219Z,17.72
2023-05-16T05:37:51.110Z,17.86
2023-05-16T05:40:40.184Z,18.03
2023-05-16T05:43:28.271Z,18.17
2023-05-16T05:46:13.914Z,18.10
2023-05-16T05:48:59.906Z,18.17
2023-05-16T05:51:45.417Z,18.43
2023-05-16T05:54:30.799Z,18.24
2023-05-16T05:57:16.405Z,18.08
2023-05-16T06:00:01.676Z,17.81
2023-05-16T06:02:53.172Z,17.74
2023-05-16T06:05:39.309Z,18.63
2023-05-16T06:08:24.505Z,17.96
2023-05-16T06:11:10.131Z,18.71
2023-05-16T06:13:55.574Z,18.26
2023-05-16T06:16:40.943Z,18.12
2023-05-16T06:19:26.532Z,18.41
2023-05-16T06:22:12.216Z,18.39
2023-05-16T06:24:57.725Z,18.42
2023-05-16T06:27:43.180Z,18.35
2023-05-16T06:30:28.485Z,18.41
2023-05-16T06:33:15.282Z,17.88
2023-05-16T06:36:00.985Z,17.57
2023-05-16T06:38:46.594Z,18.39
2023-05-16T06:41:36.629Z,18.42
2023-05-16T06:44:23.848Z,16.76
2023-05-16T06:47:09.595Z,17.67
2023-05-16T06:49:55.374Z,17.98
2023-05-16T06:52:41.881Z,17.63
2023-05-16T06:55:27.658Z,18.58
2023-05-16T06:58:13.352Z,18.32
2023-05-16T07:00:58.720Z,18.03
2023-05-16T07:03:44.137Z,18.51
2023-05-16T07:06:29.813Z,17.74
2023-05-16T07:09:15.590Z,17.50
2023-05-16T07:12:01.364Z,17.66
2023-05-16T07:14:46.963Z,16.66
2023-05-16T07:17:32.624Z,18.29
2023-05-16T07:20:18.069Z,18.49
2023-05-16T07:23:03.300Z,18.44
2023-05-16T07:25:48.921Z,18.11
2023-05-16T07:28:34.620Z,18.37
2023-05-16T07:31:20.296Z,18.32
2023-05-16T07:34:06.554Z,18.06
2023-05-16T07:36:52.303Z,18.38
2023-05-16T07:39:37.961Z,17.37
2023-05-16T07:42:23.650Z,17.67
2023-05-16T07:45:09.587Z,18.56
2023-05-16T07:47:55.322Z,18.56
2023-05-16T07:50:40.663Z,18.64
2023-05-16T07:53:26.110Z,18.35
2023-05-16T07:56:11.455Z,18.23
2023-05-16T07:58:56.910Z,17.70
2023-05-16T08:01:42.629Z,18.00
2023-05-16T08:04:28.467Z,18.01
2023-05-16T08:07:14.695Z,17.62
2023-05-16T08:10:00.274Z,18.23
2023-05-16T08:12:46.401Z,17.49
2023-05-16T08:15:32.075Z,18.17
2023-05-16T08:18:18.759Z,18.72
2023-05-16T08:21:05.688Z,18.61
2023-05-16T08:23:51.683Z,18.84
2023-05-16T08:26:37.487Z,17.82
2023-05-16T08:29:23.128Z,18.53
2023-05-16T08:32:10.147Z,17.88
2023-05-16T08:34:55.965Z,18.98
2023-05-16T08:37:41.643Z,18.93
2023-05-16T08:40:28.252Z,18.00
2023-05-16T08:43:14.077Z,18.97
2023-05-16T08:45:59.760Z,19.09
2023-05-16T08:48:47.163Z,18.21
2023-05-16T08:51:36.596Z,18.24
2023-05-16T08:54:22.747Z,19.29
2023-05-16T08:57:09.465Z,19.26
2023-05-16T08:59:59.230Z,19.02
2023-05-16T09:02:45.869Z,18.23
2023-05-16T09:05:32.376Z,18.34
2023-05-16T09:08:18.034Z,17.96
2023-05-16T09:11:03.888Z,19.18
2023-05-16T09:13:49.659Z,19.34
2023-05-16T09:16:34.889Z,18.28
2023-05-16T09:19:23.247Z,19.46
2023-05-16T09:22:16.380Z,19.25
2023-05-16T09:25:01.727Z,19.34
2023-05-16T09:28:10.877Z,19.60
2023-05-16T09:30:59.301Z,19.59
2023-05-16T09:33:44.886Z,19.45
2023-05-16T09:36:32.221Z,19.76
2023-05-16T09:39:17.706Z,19.69
2023-05-16T09:42:03.923Z,18.62
2023-05-16T09:44:56.190Z,18.93
2023-05-16T09:47:46.668Z,18.78
2023-05-16T09:50:36.828Z,18.85
2023-05-16T09:53:33.613Z,19.97
2023-05-16T09:56:19.693Z,18.97
2023-05-16T09:59:11.372Z,18.92
2023-05-16T10:02:00.953Z,19.46
2023-05-16T10:04:46.569Z,19.60
2023-05-16T10:07:34.088Z,18.95
2023-05-16T10:10:20.518Z,19.96
2023-05-16T10:13:08.410Z,19.13
2023-05-16T10:15:56.589Z,19.94
2023-05-16T10:18:43.500Z,19.02
2023-05-16T10:21:29.970Z,19.88
2023-05-16T10:24:22.326Z,19.33
2023-05-16T10:27:09.498Z,19.54
2023-05-16T10:29:55.671Z,18.98
2023-05-16T10:32:42.986Z,18.83
2023-05-16T10:35:29.001Z,19.95
2023-05-16T10:38:17.860Z,20.03
2023-05-16T10:41:03.769Z,19.00
2023-05-16T10:43:59.105Z,19.69
2023-05-16T10:46:47.276Z,19.66
2023-05-16T10:49:32.872Z,20.23
2023-05-16T10:52:18.466Z,20.24
2023-05-16T10:55:04.900Z,20.11
2023-05-16T10:57:50.633Z,19.02
2023-05-16T11:00:36.238Z,19.87
2023-05-16T11:03:28.711Z,19.56
2023-05-16T11:06:22.308Z,19.26
2023-05-16T11:09:13.333Z,20.41
2023-05-16T11:12:00.299Z,20.43
2023-05-16T11:14:51.800Z,20.30
2023-05-16T11:17:42.818Z,20.43
2023-05-16T11:20:35.612Z,19.54
2023-05-16T11:23:25.984Z,19.56
2023-05-16T11:26:11.820Z,20.62
2023-05-16T11:28:59.466Z,20.42
2023-05-16T11:31:44.921Z,20.51
2023-05-16T11:34:31.310Z,19.49
2023-05-16T11:37:17.849Z,19.88
2023-05-16T11:40:04.508Z,19.49
2023-05-16T11:42:50.306Z,19.76
2023-05-16T11:45:36.072Z,20.67
2023-05-16T11:48:35.743Z,20.44
2023-05-16T11:51:23.157Z,19.83
2023-05-16T11:54:10.635Z,20.15
2023-05-16T11:56:56.679Z,19.89
2023-05-16T11:59:42.324Z,20.58
2023-05-16T12:02:30.384Z,20.57
2023-05-16T12:05:20.815Z,20.64
2023-05-16T12:08:06.769Z,20.63
2023-05-16T12:10:53.675Z,20.50
2023-05-16T12:13:39.102Z,20.46
2023-05-16T12:16:24.827Z,19.79
2023-05-16T12:19:10.809Z,20.02
2023-05-16T12:21:56.361Z,20.67
2023-05-16T12:24:41.767Z,19.77
2023-05-16T12:27:27.956Z,20.28
2023-05-16T12:30:13.993Z,20.79
2023-05-16T12:33:06.989Z,20.81
2023-05-16T12:35:55.356Z,20.49
2023-05-16T12:38:40.596Z,20.86
2023-05-16T12:41:26.302Z,19.83
2023-05-16T12:44:19.510Z,20.89
2023-05-16T12:47:12.395Z,20.84
2023-05-16T12:49:57.912Z,20.87
2023-05-16T12:52:54.341Z,19.88
2023-05-16T12:55:41.137Z,20.30
2023-05-16T12:58:27.523Z,20.20
2023-05-16T13:01:15.739Z,20.97
2023-05-16T13:04:01.469Z,20.95
2023-05-16T13:06:58.259Z,19.95
2023-05-16T13:09:44.272Z,20.89
2023-05-16T13:12:30.078Z,20.96
2023-05-16T13:15:15.845Z,19.88
2023-05-16T13:18:01.195Z,21.03
2023-05-16T13:20:46.570Z,18.21
2023-05-16T13:23:33.083Z,20.60
2023-05-16T13:26:18.398Z,20.19
2023-05-16T13:29:03.858Z,21.04
2023-05-16T13:31:49.331Z,21.09
2023-05-16T13:34:35.372Z,20.69
2023-05-16T13:37:21.349Z,20.75
2023-05-16T13:40:10.493Z,20.91
2023-05-16T13:42:57.068Z,21.20
2023-05-16T13:45:43.356Z,21.10
2023-05-16T13:48:28.947Z,20.40
2023-05-16T13:51:14.873Z,21.05
2023-05-16T13:54:00.436Z,21.26
2023-05-16T13:56:45.937Z,20.14
2023-05-16T13:59:56.782Z,20.19
2023-05-16T14:02:36.953Z,21.08
2023-05-16T14:05:22.679Z,21.28
2023-05-16T14:08:08.306Z,20.64
2023-05-16T14:10:53.857Z,20.76
2023-05-16T14:13:40.403Z,20.84
2023-05-16T14:16:27.245Z,20.38
2023-05-16T14:19:13.587Z,21.27
2023-05-16T14:22:00.174Z,20.57
2023-05-16T14:24:45.783Z,20.20
2023-05-16T14:27:31.270Z,21.12
2023-05-16T14:30:17.354Z,21.01
2023-05-16T14:33:03.560Z,21.14
2023-05-16T14:35:50.218Z,20.23
2023-05-16T14:38:37.456Z,20.44
2023-05-16T14:41:23.015Z,21.28
2023-05-16T14:44:08.558Z,19.90
2023-05-16T14:46:54.026Z,21.29
2023-05-16T14:49:40.478Z,20.24
2023-05-16T14:52:26.521Z,21.23
2023-05-16T14:55:12.538Z,20.71
2023-05-16T14:58:00.108Z,21.18
2023-05-16T15:00:46.260Z,21.13
2023-05-16T15:03:43.364Z,20.44
2023-05-16T15:06:37.323Z,20.30
2023-05-16T15:09:23.295Z,20.98
2023-05-16T15:12:08.932Z,19.90
2023-05-16T15:14:54.462Z,20.99
2023-05-16T15:17:41.911Z,21.10
2023-05-16T15:20:28.099Z,20.40
2023-05-16T15:23:14.002Z,20.44
2023-05-16T15:25:59.648Z,20.07
2023-05-16T15:28:45.128Z,21.07
2023-05-16T15:31:32.196Z,20.03
2023-05-16T15:34:17.999Z,21.01
2023-05-16T15:37:03.908Z,21.00
2023-05-16T15:39:49.408Z,20.94
2023-05-16T15:42:35.444Z,20.85
2023-05-16T15:45:21.094Z,20.17
2023-05-16T15:48:07.073Z,19.96
2023-05-16T15:50:53.078Z,19.88
2023-05-16T15:53:38.599Z,19.84
2023-05-16T15:56:24.155Z,19.68
2023-05-16T15:59:09.586Z,20.79
2023-05-16T16:01:55.107Z,20.42
2023-05-16T16:04:41.379Z,19.82
2023-05-16T16:07:26.896Z,20.85
2023-05-16T16:10:12.358Z,20.77
2023-05-16T16:13:05.016Z,20.82
2023-05-16T16:15:51.264Z,20.77
2023-05-16T16:18:36.900Z,20.77
2023-05-16T16:21:23.749Z,20.77
2023-05-16T16:24:09.063Z,20.77
2023-05-16T16:26:54.794Z,20.74
2023-05-16T16:29:40.454Z,20.05
2023-05-16T16:32:26.274Z,20.67
2023-05-16T16:35:15.313Z,20.66
2023-05-16T16:38:06.328Z,19.75
2023-05-16T16:40:53.091Z,19.54
2023-05-16T16:43:40.112Z,20.53
2023-05-16T16:46:25.760Z,19.73
2023-05-16T16:49:12.025Z,20.27
2023-05-16T16:51:58.180Z,20.47
2023-05-16T16:54:43.777Z,20.44
2023-05-16T16:57:29.139Z,19.94
2023-05-16T17:00:15.475Z,20.31
2023-05-16T17:03:03.890Z,20.31
2023-05-16T17:05:49.545Z,19.43
2023-05-16T17:08:34.961Z,19.26
2023-05-16T17:11:23.447Z,20.25
2023-05-16T17:14:10.709Z,19.38
2023-05-16T17:16:56.794Z,19.99
2023-05-16T17:19:42.826Z,20.17
2023-05-16T17:22:28.410Z,20.09
2023-05-16T17:25:13.646Z,19.10
2023-05-16T17:27:59.337Z,20.03
2023-05-16T17:30:45.039Z,20.09
2023-05-16T17:33:30.602Z,20.04
2023-05-16T17:36:16.127Z,19.01
2023-05-16T17:39:01.791Z,18.77
2023-05-16T17:41:47.393Z,19.36
2023-05-16T17:44:33.425Z,18.61
2023-05-16T17:47:19.744Z,18.62
2023-05-16T17:50:08.771Z,19.68
2023-05-16T17:52:55.403Z,19.66
2023-05-16T17:55:41.138Z,19.63
2023-05-16T17:58:27.437Z,19.29
2023-05-16T18:01:13.686Z,19.29
2023-05-16T18:03:59.777Z,18.23
2023-05-16T18:06:46.195Z,18.16
2023-05-16T18:09:31.698Z,18.17
2023-05-16T18:12:17.320Z,18.15
2023-05-16T18:15:03.927Z,18.99
2023-05-16T18:17:49.615Z,19.03
2023-05-16T18:20:35.573Z,17.96
2023-05-16T18:23:21.459Z,18.29
2023-05-16T18:26:07.280Z,18.92
2023-05-16T18:28:52.840Z,17.81
2023-05-16T18:31:41.280Z,18.73
2023-05-16T18:34:27.082Z,17.95
2023-05-16T18:37:13.946Z,19.00
2023-05-16T18:39:59.629Z,17.90
2023-05-16T18:42:44.879Z,18.13
2023-05-16T18:45:30.756Z,17.81
2023-05-16T18:48:16.606Z,17.94
2023-05-16T18:51:02.203Z,17.79
2023-05-16T18:53:48.491Z,17.96
2023-05-16T18:56:33.987Z,18.64
2023-05-16T18:59:20.031Z,17.75
2023-05-16T19:02:05.752Z,17.75
2023-05-16T19:04:52.357Z,17.66
2023-05-16T19:07:38.526Z,18.38
2023-05-16T19:10:25.367Z,18.58
2023-05-16T19:13:10.729Z,18.59
2023-05-16T19:15:56.044Z,18.49
2023-05-16T19:18:42.416Z,18.52
2023-05-16T19:21:28.301Z,17.67
2023-05-16T19:24:13.628Z,17.71
2023-05-16T19:26:59.161Z,18.21
2023-05-16T19:29:45.076Z,18.47
2023-05-16T19:32:30.423Z,17.48
2023-05-16T19:35:16.233Z,18.42
2023-05-16T19:38:02.681Z,17.26
2023-05-16T19:40:48.015Z,18.13
2023-05-16T19:43:34.353Z,17.23
2023-05-16T19:46:19.748Z,17.35
2023-05-16T19:49:07.271Z,17.37
2023-05-16T19:51:52.538Z,18.28
2023-05-16T19:54:40.993Z,18.20
2023-05-16T19:57:26.340Z,17.97
2023-05-16T20:00:13.122Z,17.89
2023-05-16T20:02:58.510Z,18.26
2023-05-16T20:05:44.380Z,17.20
2023-05-16T20:08:30.640Z,17.66
2023-05-16T20:11:16.129Z,18.22
2023-05-16T20:14:02.020Z,17.70
2023-05-16T20:16:47.518Z,18.22
2023-05-16T20:19:33.365Z,18.05
2023-05-16T20:22:22.386Z,18.27
2023-05-16T20:25:10.529Z,17.77
2023-05-16T20:27:56.513Z,18.14
2023-05-16T20:30:42.193Z,18.23
2023-05-16T20:33:30.713Z,17.81
2023-05-16T20:36:16.514Z,17.04
2023-05-16T20:39:01.988Z,17.98
2023-05-16T20:41:47.346Z,17.95
2023-05-16T20:44:34.000Z,18.05
2023-05-16T20:47:19.865Z,17.50
2023-05-16T20:50:06.224Z,17.93
2023-05-16T20:52:52.014Z,16.77
2023-05-16T20:55:37.456Z,17.77
2023-05-16T20:58:22.957Z,17.63
2023-05-16T21:01:09.420Z,17.88
2023-05-16T21:03:55.064Z,16.75
2023-05-16T21:06:40.384Z,17.79
2023-05-16T21:09:25.960Z,17.41
2023-05-16T21:12:11.607Z,17.75
2023-05-16T21:14:57.508Z,17.00
2023-05-16T21:17:43.722Z,17.69
2023-05-16T21:20:30.121Z,17.66
2023-05-16T21:23:15.897Z,17.62
2023-05-16T21:26:01.223Z,17.62
2023-05-16T21:31:36.640Z,16.60
2023-05-16T21:34:21.966Z,17.59
2023-05-16T21:37:08.466Z,17.45
2023-05-16T21:39:55.001Z,17.57
2023-05-16T21:42:40.722Z,17.51
2023-05-16T21:45:26.391Z,17.06
2023-05-16T21:48:12.636Z,16.43
2023-05-16T21:50:57.850Z,16.63
2023-05-16T21:53:43.329Z,17.50
2023-05-16T21:56:29.602Z,16.59
2023-05-16T21:59:15.464Z,16.43
2023-05-16T22:02:00.879Z,16.93
2023-05-16T22:04:46.552Z,17.44
2023-05-16T22:07:32.115Z,17.40
2023-05-16T22:10:18.599Z,17.28
2023-05-16T22:13:04.321Z,17.33
2023-05-16T22:16:03.246Z,16.99
2023-05-16T22:18:50.134Z,16.93
2023-05-16T22:21:36.092Z,17.21
2023-05-16T22:24:21.568Z,17.11
2023-05-16T22:27:06.999Z,16.10
2023-05-16T22:29:52.318Z,17.05
2023-05-16T22:32:37.744Z,17.03
2023-05-16T22:35:23.761Z,16.20
2023-05-16T22:38:09.600Z,17.05
2023-05-16T22:40:55.496Z,17.10
2023-05-16T22:43:41.554Z,17.22
2023-05-16T22:46:27.050Z,17.29
2023-05-16T22:49:12.481Z,17.27
2023-05-16T22:51:57.804Z,17.29
2023-05-16T22:54:43.161Z,17.25
2023-05-16T22:57:28.682Z,17.27
2023-05-16T23:00:14.279Z,16.29
2023-05-16T23:03:00.035Z,16.30
2023-05-16T23:05:45.706Z,16.76
2023-05-16T23:08:31.421Z,17.24
2023-05-16T23:11:16.811Z,16.87
2023-05-16T23:14:02.213Z,17.25
2023-05-16T23:16:49.130Z,17.25
2023-05-16T23:19:34.534Z,17.04
2023-05-16T23:22:20.416Z,16.31
2023-05-16T23:25:06.563Z,16.15
2023-05-16T23:27:52.115Z,16.81
2023-05-16T23:30:37.956Z,16.73
2023-05-16T23:33:23.458Z,16.47
2023-05-16T23:36:09.294Z,16.61
2023-05-16T23:38:54.860Z,16.08
2023-05-16T23:41:40.432Z,16.96
2023-05-16T23:44:25.858Z,16.90
2023-05-16T23:47:11.765Z,15.71
2023-05-16T23:49:57.119Z,15.57
2023-05-16T23:52:42.959Z,15.66
2023-05-16T23:55:28.651Z,16.80
2023-05-16T23:58:14.372Z,16.26
